createdAt,value
2023-11-12T00:00:46.788Z,4.50
2023-11-12T00:03:17.993Z,4.50
2023-11-12T00:05:46.417Z,4.50
2023-11-12T00:08:14.508Z,4.50
2023-11-12T00:10:42.743Z,4.50
2023-11-12T00:13:11.247Z,4.40
2023-11-12T00:15:41.437Z,4.40
2023-11-12T00:18:09.622Z,4.40
2023-11-12T00:20:39.134Z,4.40
2023-11-12T00:23:09.989Z,4.40
2023-11-12T00:25:38.001Z,4.50
2023-11-12T00:28:06.523Z,4.40
2023-11-12T00:30:34.713Z,4.40
2023-11-12T00:33:02.860Z,4.40
2023-11-12T00:35:31.339Z,4.40
2023-11-12T00:38:00.977Z,4.30
2023-11-12T00:40:31.519Z,4.30
2023-11-12T00:42:59.663Z,4.20
2023-11-12T00:45:27.707Z,4.20
2023-11-12T00:47:56.388Z,4.10
2023-11-12T00:50:24.824Z,4.10
2023-11-12T00:52:53.159Z,4.10
2023-11-12T00:55:22.646Z,4.20
2023-11-12T00:57:50.967Z,4.20
2023-11-12T01:00:19.575Z,4.20
2023-11-12T01:02:47.949Z,4.30
2023-11-12T01:05:16.712Z,4.30
2023-11-12T01:07:45.324Z,4.40
2023-11-12T01:10:13.838Z,4.50
2023-11-12T01:12:43.344Z,4.50
2023-11-12T01:15:12.707Z,4.50
2023-11-12T01:17:40.933Z,4.60
2023-11-12T01:20:11.490Z,4.60
2023-11-12T01:22:39.966Z,4.70
2023-11-12T01:25:09.093Z,4.70
2023-11-12T01:27:37.396Z,4.80
2023-11-12T01:30:08.600Z,4.80
2023-11-12T01:32:36.862Z,4.80
2023-11-12T01:35:06.373Z,4.90
2023-11-12T01:37:34.567Z,4.90
2023-11-12T01:40:02.600Z,5.00
2023-11-12T01:42:31.142Z,5.00
2023-11-12T01:45:01.147Z,5.00
2023-11-12T01:47:30.725Z,5.10
2023-11-12T01:49:59.292Z,5.10
2023-11-12T01:52:27.842Z,5.10
2023-11-12T01:54:57.795Z,5.10
2023-11-12T01:57:26.447Z,5.10
2023-11-12T01:59:54.689Z,5.20
2023-11-12T02:02:23.278Z,5.10
2023-11-12T02:04:53.683Z,5.10
2023-11-12T02:07:22.396Z,5.10
2023-11-12T02:09:56.168Z,5.10
2023-11-12T02:12:24.514Z,5.10
2023-11-12T02:14:52.921Z,5.10
2023-11-12T02:17:21.050Z,5.10
2023-11-12T02:19:49.261Z,5.10
2023-11-12T02:22:19.375Z,5.10
2023-11-12T02:24:48.874Z,5.10
2023-11-12T02:27:17.143Z,5.20
2023-11-12T02:29:49.733Z,5.20
2023-11-12T02:32:17.929Z,5.20
2023-11-12T02:34:46.672Z,5.10
2023-11-12T02:37:15.559Z,5.10
2023-11-12T02:39:43.763Z,5.10
2023-11-12T02:42:14.372Z,5.10
2023-11-12T02:44:43.398Z,5.10
2023-11-12T02:47:12.279Z,5.10
2023-11-12T02:49:54.743Z,5.10
2023-11-12T02:52:23.058Z,5.10
2023-11-12T02:54:51.101Z,5.10
2023-11-12T02:57:22.687Z,5.10
2023-11-12T02:59:51.200Z,5.10
2023-11-12T03:02:19.316Z,5.10
2023-11-12T03:04:49.094Z,5.10
2023-11-12T03:07:18.022Z,5.00
2023-11-12T03:09:46.460Z,5.00
2023-11-12T03:12:15.199Z,5.00
2023-11-12T03:14:45.398Z,5.00
2023-11-12T03:17:14.090Z,5.00
2023-11-12T03:19:41.610Z,5.00
2023-11-12T03:22:10.087Z,5.00
2023-11-12T03:24:38.449Z,5.00
2023-11-12T03:27:06.892Z,5.00
2023-11-12T03:29:34.891Z,5.00
2023-11-12T03:32:04.373Z,5.00
2023-11-12T03:34:32.872Z,5.00
2023-11-12T03:37:00.838Z,5.00
2023-11-12T03:39:28.889Z,5.00
2023-11-12T03:41:56.910Z,5.00
2023-11-12T03:44:25.002Z,5.00
2023-11-12T03:46:53.064Z,5.00
2023-11-12T03:49:22.903Z,5.00
2023-11-12T03:51:53.057Z,5.00
2023-11-12T03:54:21.045Z,4.90
2023-11-12T03:56:49.295Z,4.90
2023-11-12T03:59:17.325Z,4.90
2023-11-12T04:01:49.068Z,4.90
2023-11-12T04:04:17.531Z,5.00
2023-11-12T04:06:46.969Z,5.00
2023-11-12T04:09:15.014Z,5.00
2023-11-12T04:11:43.826Z,5.00
2023-11-12T04:14:12.344Z,5.10
2023-11-12T04:16:41.838Z,5.10
2023-11-12T04:19:10.187Z,5.20
2023-11-12T04:21:38.791Z,5.10
2023-11-12T04:24:10.074Z,5.20
2023-11-12T04:26:38.257Z,5.20
2023-11-12T04:29:08.361Z,5.20
2023-11-12T04:31:37.378Z,5.20
2023-11-12T04:34:06.273Z,5.20
2023-11-12T04:36:36.718Z,5.20
2023-11-12T04:39:05.085Z,5.20
2023-11-12T04:41:34.469Z,5.20
2023-11-12T04:44:02.558Z,5.20
2023-11-12T04:46:32.319Z,5.10
2023-11-12T04:49:00.944Z,5.10
2023-11-12T04:51:29.077Z,5.10
2023-11-12T04:53:57.208Z,5.10
2023-11-12T04:56:25.411Z,5.10
2023-11-12T04:58:54.969Z,5.10
2023-11-12T05:01:22.980Z,5.10
2023-11-12T05:03:51.219Z,5.00
2023-11-12T05:06:19.499Z,5.00
2023-11-12T05:08:47.599Z,5.00
2023-11-12T05:11:15.562Z,5.10
2023-11-12T05:13:43.704Z,5.10
2023-11-12T05:16:13.362Z,5.10
2023-11-12T05:18:42.045Z,5.10
2023-11-12T05:21:10.198Z,5.10
2023-11-12T05:23:38.639Z,5.10
2023-11-12T05:26:06.798Z,5.10
2023-11-12T05:28:34.938Z,5.10
2023-11-12T05:31:03.079Z,5.10
2023-11-12T05:33:32.701Z,5.10
2023-11-12T05:36:00.788Z,5.10
2023-11-12T05:38:29.381Z,5.10
2023-11-12T05:40:57.607Z,5.10
2023-11-12T05:43:25.627Z,5.00
2023-11-12T05:45:53.805Z,5.00
2023-11-12T05:48:22.137Z,5.00
2023-11-12T05:50:51.562Z,5.00
2023-11-12T05:53:20.812Z,5.00
2023-11-12T05:55:48.863Z,5.00
2023-11-12T05:58:17.352Z,5.00
2023-11-12T06:00:45.869Z,5.00
2023-11-12T06:03:14.052Z,4.90
2023-11-12T06:05:42.334Z,5.00
2023-11-12T06:08:10.619Z,4.90
2023-11-12T06:10:38.882Z,4.90
2023-11-12T06:13:06.785Z,5.00
2023-11-12T06:15:35.091Z,5.00
2023-11-12T06:18:04.202Z,4.90
2023-11-12T06:20:32.253Z,5.00
2023-11-12T06:23:00.354Z,4.90
2023-11-12T06:25:29.732Z,5.00
2023-11-12T06:27:57.748Z,5.00
2023-11-12T06:30:25.864Z,5.00
2023-11-12T06:32:53.903Z,5.00
2023-11-12T06:35:22.222Z,5.00
2023-11-12T06:37:50.239Z,5.00
2023-11-12T06:40:18.653Z,5.00
2023-11-12T06:42:48.568Z,5.00
2023-11-12T06:45:17.596Z,5.00
2023-11-12T06:47:46.252Z,5.00
2023-11-12T06:50:15.109Z,5.00
2023-11-12T06:52:43.301Z,5.00
2023-11-12T06:55:11.656Z,5.00
2023-11-12T06:57:40.236Z,5.00
2023-11-12T07:00:11.654Z,5.00
2023-11-12T07:02:40.075Z,5.00
2023-11-12T07:05:08.751Z,5.00
2023-11-12T07:07:36.701Z,5.00
2023-11-12T07:10:07.218Z,5.00
2023-11-12T07:12:35.349Z,5.00
2023-11-12T07:15:04.933Z,5.00
2023-11-12T07:17:36.739Z,5.00
2023-11-12T07:20:06.964Z,5.00
2023-11-12T07:22:37.176Z,5.00
2023-11-12T07:25:05.752Z,5.00
2023-11-12T07:27:33.718Z,5.10
2023-11-12T07:30:02.045Z,5.10
2023-11-12T07:32:30.080Z,5.10
2023-11-12T07:34:59.808Z,5.10
2023-11-12T07:37:31.066Z,5.20
2023-11-12T07:39:59.104Z,5.20
2023-11-12T07:42:27.408Z,5.20
2023-11-12T07:45:00.246Z,5.30
2023-11-12T07:47:36.626Z,5.30
2023-11-12T07:50:07.928Z,5.30
2023-11-12T07:52:36.246Z,5.30
2023-11-12T07:55:06.345Z,5.30
2023-11-12T07:57:34.736Z,5.30
2023-11-12T08:00:02.805Z,5.30
2023-11-12T08:02:40.340Z,5.30
2023-11-12T08:05:11.248Z,5.30
2023-11-12T08:07:39.524Z,5.30
2023-11-12T08:10:09.936Z,5.30
2023-11-12T08:12:39.379Z,5.40
2023-11-12T08:15:11.966Z,5.40
2023-11-12T08:17:40.234Z,5.30
2023-11-12T08:20:11.953Z,5.30
2023-11-12T08:22:39.958Z,5.30
2023-11-12T08:25:10.980Z,5.30
2023-11-12T08:27:39.350Z,5.30
2023-11-12T08:30:08.827Z,5.30
2023-11-12T08:32:37.413Z,5.40
2023-11-12T08:35:06.628Z,5.40
2023-11-12T08:37:36.975Z,5.40
2023-11-12T08:40:08.112Z,5.50
2023-11-12T08:42:36.374Z,5.50
2023-11-12T08:45:05.557Z,5.50
2023-11-12T08:47:33.956Z,5.50
2023-11-12T08:50:02.007Z,5.50
2023-11-12T08:52:29.948Z,5.60
2023-11-12T08:55:00.315Z,5.60
2023-11-12T08:57:28.587Z,5.60
2023-11-12T08:59:56.696Z,5.60
2023-11-12T09:02:24.843Z,5.60
2023-11-12T09:04:52.880Z,5.60
2023-11-12T09:07:21.418Z,5.70
2023-11-12T09:09:49.440Z,5.70
2023-11-12T09:12:18.799Z,5.70
2023-11-12T09:14:46.995Z,5.70
2023-11-12T09:17:15.724Z,5.70
2023-11-12T09:19:46.400Z,5.70
2023-11-12T09:22:14.891Z,5.70
2023-11-12T09:24:55.328Z,5.70
2023-11-12T09:27:34.015Z,5.70
2023-11-12T09:30:02.486Z,5.70
2023-11-12T09:32:31.225Z,5.70
2023-11-12T09:34:59.281Z,5.70
2023-11-12T09:37:27.540Z,5.70
2023-11-12T09:39:55.991Z,5.70
2023-11-12T09:42:28.056Z,5.80
2023-11-12T09:45:00.568Z,5.90
2023-11-12T09:47:39.518Z,5.90
2023-11-12T09:50:11.744Z,6.00
2023-11-12T09:52:39.995Z,6.00
2023-11-12T09:55:11.523Z,5.90
2023-11-12T09:57:39.942Z,5.90
